Time;durP1;ratioP1;P1;durP2;ratioP2;P2;SDS_P1;SDS_P2;PMS_P1;PMS_P2;Temp;Humidity;BMP_temperature;BMP_pressure;BME280_temperature;BME280_humidity;BME280_pressure;Samples;Min_cycle;Max_cycle;Signal;HPM_P1;HPM_P2
2021/06/18 00:04:05;;;;;;;15.30;10.15;;;;;;;23.97;55.63;100180.41;10318951;28;20248;-76
2021/06/18 00:09:08;;;;;;;10.93;9.10;;;;;;;23.95;55.62;100189.91;10318206;28;20742;-75
2021/06/18 00:14:13;;;;;;;12.32;9.02;;;;;;;23.86;55.80;100198.38;10335806;28;20250;-75
2021/06/18 00:19:16;;;;;;;11.23;8.45;;;;;;;23.70;55.61;100192.50;10436006;28;20225;-73
2021/06/18 00:24:19;;;;;;;12.48;8.90;;;;;;;23.61;55.79;100192.72;10433233;28;20756;-76
2021/06/18 00:29:23;;;;;;;14.05;8.52;;;;;;;23.48;56.00;100189.16;10435243;28;20236;-75
2021/06/18 00:34:26;;;;;;;11.10;7.82;;;;;;;23.50;55.99;100185.13;10433300;28;20241;-76
2021/06/18 00:39:29;;;;;;;11.18;8.43;;;;;;;23.46;55.92;100172.09;10435214;28;20245;-75
2021/06/18 00:44:33;;;;;;;14.30;8.73;;;;;;;23.33;56.24;100171.06;10431836;28;20275;-76
2021/06/18 00:49:36;;;;;;;12.07;8.57;;;;;;;23.14;56.27;100180.97;10400238;28;20239;-75
2021/06/18 00:54:41;;;;;;;12.27;8.43;;;;;;;23.13;56.16;100173.81;10389203;28;20241;-75
2021/06/18 00:59:45;;;;;;;11.75;8.10;;;;;;;23.13;56.15;100183.94;10391708;28;20240;-76
2021/06/18 01:04:48;;;;;;;11.93;8.27;;;;;;;23.01;56.55;100180.97;10392098;28;20238;-76
2021/06/18 01:10:03;;;;;;;10.80;8.75;;;;;;;22.91;56.76;100177.81;10393468;28;20230;-75
2021/06/18 01:15:13;;;;;;;11.90;8.45;;;;;;;22.82;56.91;100173.56;10389933;28;20340;-76
2021/06/18 01:20:48;;;;;;;10.57;9.02;;;;;;;22.80;56.83;100182.03;10392085;28;20241;-76
2021/06/18 01:26:00;;;;;;;12.30;8.35;;;;;;;22.67;57.19;100169.16;10390371;28;20241;-76
2021/06/18 01:31:07;;;;;;;8.98;8.00;;;;;;;22.71;56.90;100161.38;10389930;28;20226;-75
2021/06/18 01:36:13;;;;;;;9.48;8.25;;;;;;;22.60;57.05;100160.09;10389969;28;20299;-76
2021/06/18 01:41:20;;;;;;;11.23;7.90;;;;;;;22.42;58.02;100148.88;10391139;28;20845;-75
2021/06/18 01:46:27;;;;;;;9.80;8.02;;;;;;;22.37;58.05;100144.03;10392345;28;20263;-75
2021/06/18 01:51:32;;;;;;;10.35;8.30;;;;;;;22.33;58.15;100140.03;10391481;28;20242;-76
2021/06/18 01:56:37;;;;;;;10.63;8.32;;;;;;;22.29;57.89;100130.53;10391628;28;20271;-76
2021/06/18 02:01:47;;;;;;;11.32;7.75;;;;;;;22.22;58.07;100124.22;10391529;28;20234;-76
2021/06/18 02:06:51;;;;;;;12.52;8.75;;;;;;;22.08;58.88;100128.84;10388634;28;20237;-76
2021/06/18 02:11:55;;;;;;;12.38;9.32;;;;;;;22.05;58.54;100118.28;10390681;28;20236;-75
2021/06/18 02:17:03;;;;;;;10.43;7.95;;;;;;;21.97;58.58;100123.94;10391490;28;20237;-75
2021/06/18 02:22:08;;;;;;;16.38;9.32;;;;;;;21.93;59.10;100126.25;10389368;28;20240;-75
2021/06/18 02:27:15;;;;;;;11.18;8.50;;;;;;;21.82;59.21;100113.16;10389699;28;20607;-75
2021/06/18 02:32:21;;;;;;;7.72;5.60;;;;;;;21.64;59.76;100116.44;10388448;28;20245;-75
2021/06/18 02:37:24;;;;;;;7.93;5.70;;;;;;;21.59;60.10;100108.00;10386668;28;20244;-75
2021/06/18 02:42:27;;;;;;;7.95;7.15;;;;;;;21.56;59.93;100101.06;10390540;28;20737;-76
2021/06/18 02:47:39;;;;;;;8.57;7.80;;;;;;;21.59;60.22;100099.81;10389871;28;20611;-76
2021/06/18 02:52:48;;;;;;;10.85;7.43;;;;;;;21.66;60.14;100100.66;10389599;28;20252;-75
2021/06/18 02:57:56;;;;;;;11.38;9.48;;;;;;;21.52;59.91;100094.28;10388290;28;20258;-76
2021/06/18 03:03:01;;;;;;;9.73;8.00;;;;;;;20.92;61.88;100099.38;10389012;28;20245;-75
2021/06/18 03:08:05;;;;;;;8.80;7.90;;;;;;;20.96;62.35;100089.75;10387144;28;20233;-75
2021/06/18 03:13:11;;;;;;;10.82;8.82;;;;;;;21.15;61.27;100092.84;10389144;28;20588;-75
2021/06/18 03:18:20;;;;;;;9.57;8.27;;;;;;;20.76;62.64;100102.41;10386456;28;20241;-75
2021/06/18 03:23:25;;;;;;;10.57;8.23;;;;;;;20.78;62.57;100101.16;10391230;28;20238;-75
2021/06/18 03:28:28;;;;;;;10.55;7.45;;;;;;;20.92;62.06;100106.72;10395818;28;20229;-75
2021/06/18 03:33:33;;;;;;;12.32;8.82;;;;;;;21.03;62.02;100114.38;10394874;28;20241;-75
2021/06/18 03:38:38;;;;;;;11.27;7.85;;;;;;;21.05;62.25;100122.41;10397621;28;20233;-75
2021/06/18 03:43:41;;;;;;;11.32;9.35;;;;;;;21.20;61.16;100118.53;10395716;28;20252;-76
2021/06/18 03:48:46;;;;;;;10.05;8.38;;;;;;;21.22;61.30;100116.41;10393625;28;20229;-75
2021/06/18 03:53:50;;;;;;;11.50;8.48;;;;;;;21.30;61.25;100120.88;10394072;28;20271;-75
2021/06/18 03:58:54;;;;;;;8.80;7.72;;;;;;;21.40;60.82;100113.16;10398366;28;20260;-75
2021/06/18 04:04:00;;;;;;;9.73;7.82;;;;;;;21.37;61.02;100119.03;10397790;28;20611;-76
2021/06/18 04:09:04;;;;;;;8.57;7.50;;;;;;;21.29;61.16;100129.28;10397399;28;20624;-76
2021/06/18 04:14:11;;;;;;;10.60;8.57;;;;;;;20.55;62.85;100133.31;10396209;28;20244;-76
2021/06/18 04:19:15;;;;;;;11.55;9.73;;;;;;;20.07;64.56;100143.88;10397330;28;20587;-76
2021/06/18 04:24:18;;;;;;;13.73;11.32;;;;;;;20.05;65.66;100138.66;10395661;28;20249;-75
2021/06/18 04:29:22;;;;;;;16.38;10.23;;;;;;;20.06;65.71;100143.06;10394631;28;20725;-75
2021/06/18 04:34:26;;;;;;;13.18;11.63;;;;;;;20.31;65.35;100138.09;10394176;28;20241;-75
2021/06/18 04:39:29;;;;;;;11.57;9.02;;;;;;;20.75;64.13;100141.66;10395064;28;20237;-75
2021/06/18 04:44:32;;;;;;;11.35;9.48;;;;;;;21.01;62.94;100147.34;10394135;28;20240;-76
2021/06/18 04:49:37;;;;;;;11.55;9.02;;;;;;;21.37;62.45;100140.06;10395616;28;20225;-75
2021/06/18 04:54:40;;;;;;;10.25;8.00;;;;;;;21.65;61.92;100143.56;10394002;28;20250;-75
2021/06/18 04:59:43;;;;;;;9.15;8.00;;;;;;;21.97;61.44;100140.34;10393446;28;20634;-75
2021/06/18 05:04:47;;;;;;;15.40;9.88;;;;;;;22.13;61.21;100139.13;10393392;28;20256;-75
2021/06/18 05:09:50;;;;;;;12.05;8.85;;;;;;;22.25;60.24;100138.34;10391578;28;20238;-75
2021/06/18 05:14:53;;;;;;;11.60;8.52;;;;;;;22.43;59.53;100137.75;10391075;28;20240;-75
2021/06/18 05:19:57;;;;;;;10.10;8.50;;;;;;;22.57;59.18;100133.13;10392198;28;20601;-74
2021/06/18 05:25:00;;;;;;;11.30;9.55;;;;;;;22.69;58.79;100125.16;10394800;28;20249;-75
2021/06/18 05:30:04;;;;;;;10.65;8.68;;;;;;;22.76;58.24;100131.47;10394445;28;20245;-75
2021/06/18 05:35:20;;;;;;;11.25;9.90;;;;;;;22.80;57.91;100129.16;10390506;28;20324;-75
2021/06/18 05:40:23;;;;;;;12.55;10.40;;;;;;;22.79;58.62;100133.81;10390957;28;20240;-75
2021/06/18 05:45:26;;;;;;;13.93;11.13;;;;;;;22.84;58.11;100128.50;10393154;28;20241;-75
2021/06/18 05:50:30;;;;;;;14.48;10.82;;;;;;;22.91;58.43;100145.78;10406596;28;20272;-75
2021/06/18 05:55:33;;;;;;;13.93;10.63;;;;;;;22.85;57.45;100156.75;10414039;28;20236;-75
2021/06/18 06:00:36;;;;;;;13.38;10.18;;;;;;;23.01;57.65;100159.06;10439151;28;20237;-75
2021/06/18 06:05:46;;;;;;;13.50;10.45;;;;;;;23.19;58.03;100164.75;10434101;28;20310;-75
2021/06/18 06:10:50;;;;;;;10.45;9.15;;;;;;;23.34;56.62;100160.94;10434845;28;20732;-75
2021/06/18 06:15:54;;;;;;;11.38;10.07;;;;;;;23.39;55.58;100158.38;10434334;28;20248;-75
2021/06/18 06:20:58;;;;;;;10.65;9.57;;;;;;;23.45;56.37;100149.34;10435107;28;20268;-75
2021/06/18 06:26:01;;;;;;;14.73;10.68;;;;;;;23.67;55.89;100141.69;10432186;28;20244;-75
2021/06/18 06:31:04;;;;;;;11.43;8.88;;;;;;;23.92;55.83;100143.72;10431246;28;20601;-76
2021/06/18 06:36:09;;;;;;;14.88;10.77;;;;;;;24.17;54.95;100149.28;10430659;28;20229;-75
2021/06/18 06:41:12;;;;;;;11.55;10.07;;;;;;;24.49;54.95;100156.50;10430330;28;20233;-75
2021/06/18 06:46:15;;;;;;;10.77;9.75;;;;;;;24.89;53.91;100144.34;10433397;28;25551;-75
2021/06/18 06:51:19;;;;;;;11.48;9.73;;;;;;;25.17;52.69;100138.41;10422584;28;20249;-76
2021/06/18 06:56:23;;;;;;;13.07;11.38;;;;;;;25.32;52.57;100140.81;10400428;28;20275;-75
2021/06/18 07:01:26;;;;;;;12.30;8.88;;;;;;;25.38;52.53;100137.97;10404507;28;20230;-75
2021/06/18 07:06:33;;;;;;;15.63;11.02;;;;;;;25.68;51.77;100133.66;10399176;28;21579;-74
2021/06/18 07:11:36;;;;;;;14.77;11.65;;;;;;;25.62;51.66;100138.16;10387663;28;20233;-74
2021/06/18 07:16:39;;;;;;;13.48;11.02;;;;;;;25.78;52.10;100136.69;10391464;28;20237;-74
2021/06/18 07:21:44;;;;;;;12.35;11.00;;;;;;;26.06;51.14;100136.97;10390888;28;20250;-74
2021/06/18 07:26:46;;;;;;;13.10;11.75;;;;;;;26.11;50.84;100129.91;10389526;28;20245;-75
2021/06/18 07:31:49;;;;;;;12.23;10.93;;;;;;;26.42;50.51;100128.88;10388894;28;20884;-74
2021/06/18 07:36:54;;;;;;;14.40;11.50;;;;;;;26.40;50.66;100120.81;10390587;28;20268;-74
2021/06/18 07:42:09;;;;;;;13.05;10.90;;;;;;;26.83;50.50;100124.44;10385800;28;21955;-74
2021/06/18 07:47:12;;;;;;;14.15;11.18;;;;;;;27.29;49.72;100118.06;10422552;28;20241;-74
2021/06/18 07:52:16;;;;;;;13.13;11.65;;;;;;;27.69;48.65;100127.47;10420135;28;20259;-74
2021/06/18 07:57:19;;;;;;;13.38;11.52;;;;;;;27.95;48.18;100126.09;10428123;28;21198;-74
2021/06/18 08:02:22;;;;;;;13.60;12.18;;;;;;;28.34;47.57;100123.53;10427302;28;20787;-75
2021/06/18 08:07:27;;;;;;;14.18;11.77;;;;;;;28.58;47.33;100121.47;10415342;28;20277;-75
2021/06/18 08:12:30;;;;;;;14.45;11.80;;;;;;;28.74;45.92;100120.66;10418770;28;20701;-74
2021/06/18 08:17:34;;;;;;;12.20;10.55;;;;;;;29.63;45.27;100119.81;10438222;28;20227;-74
2021/06/18 08:22:38;;;;;;;14.85;13.07;;;;;;;30.69;42.47;100102.69;10445672;28;20230;-75
2021/06/18 08:27:41;;;;;;;12.70;11.38;;;;;;;31.56;42.00;100107.94;10434225;28;20240;-75
2021/06/18 08:32:44;;;;;;;14.52;11.73;;;;;;;32.31;39.94;100113.22;10436420;28;20775;-74
2021/06/18 08:37:49;;;;;;;14.32;11.18;;;;;;;31.87;41.44;100100.59;10433730;28;20247;-75
2021/06/18 08:42:52;;;;;;;13.77;11.02;;;;;;;31.31;41.79;100108.66;10434181;28;20229;-75
2021/06/18 08:47:55;;;;;;;15.32;11.57;;;;;;;30.48;43.02;100112.72;10429403;28;20613;-75
2021/06/18 08:53:02;;;;;;;15.13;11.48;;;;;;;30.20;45.30;100105.53;10410134;28;20225;-75
2021/06/18 08:58:05;;;;;;;12.77;11.30;;;;;;;30.59;43.86;100108.09;10395490;28;20620;-75
2021/06/18 09:03:33;;;;;;;12.20;10.93;;;;;;;31.11;44.12;100112.94;10392936;28;20230;-75
2021/06/18 09:08:37;;;;;;;12.68;11.32;;;;;;;31.10;43.27;100122.38;10420949;28;20243;-75
2021/06/18 09:13:40;;;;;;;12.40;11.20;;;;;;;31.32;42.93;100111.19;10434358;28;20244;-75
2021/06/18 09:18:44;;;;;;;13.07;11.65;;;;;;;30.76;43.82;100126.56;10420650;28;20243;-75
2021/06/18 09:23:51;;;;;;;13.07;10.43;;;;;;;31.71;42.86;100123.88;10419222;28;20353;-75
2021/06/18 09:29:02;;;;;;;12.25;10.80;;;;;;;32.20;41.40;100112.38;10431612;28;20721;-75
2021/06/18 09:34:06;;;;;;;11.82;10.63;;;;;;;32.04;42.43;100118.97;10425170;28;20232;-75
2021/06/18 09:39:15;;;;;;;11.43;10.25;;;;;;;32.81;40.01;100134.69;10432098;28;20717;-74
2021/06/18 09:44:20;;;;;;;12.65;11.32;;;;;;;31.84;41.73;100128.06;10417181;28;20239;-75
2021/06/18 09:49:38;;;;;;;11.88;10.77;;;;;;;31.95;41.98;100124.22;10398826;28;21328;-75
2021/06/18 09:54:45;;;;;;;12.25;10.70;;;;;;;32.93;40.14;100128.00;10398106;28;20232;-75
2021/06/18 09:59:54;;;;;;;12.73;10.98;;;;;;;32.83;40.09;100117.69;10349083;28;20696;-75
2021/06/18 10:04:57;;;;;;;11.48;10.30;;;;;;;33.43;40.37;100117.88;10347421;28;20270;-75
2021/06/18 10:10:02;;;;;;;11.73;10.60;;;;;;;33.65;39.34;100129.50;10349694;28;20265;-75
2021/06/18 10:15:07;;;;;;;12.50;10.75;;;;;;;33.31;39.76;100129.34;10349560;28;20238;-76
2021/06/18 10:20:12;;;;;;;11.25;10.05;;;;;;;33.02;40.71;100129.94;10379868;28;20593;-75
2021/06/18 10:25:23;;;;;;;12.52;11.23;;;;;;;31.75;43.28;100125.00;10407698;28;20767;-74
2021/06/18 10:30:29;;;;;;;11.75;10.60;;;;;;;32.75;41.37;100123.81;10390920;28;20767;-74
2021/06/18 10:35:46;;;;;;;11.32;10.23;;;;;;;34.38;38.88;100111.31;10413975;28;20236;-75
2021/06/18 10:40:51;;;;;;;12.10;11.05;;;;;;;34.70;38.41;100113.59;10429718;28;20232;-74
2021/06/18 10:46:16;;;;;;;13.48;11.25;;;;;;;34.01;39.26;100112.66;10419137;28;20604;-74
2021/06/18 10:51:34;;;;;;;12.43;11.27;;;;;;;35.22;38.27;100100.81;10429375;28;20232;-75
2021/06/18 10:57:14;;;;;;;12.27;11.05;;;;;;;34.90;36.24;100087.44;10427946;28;21410;-75
2021/06/18 11:02:36;;;;;;;13.40;12.00;;;;;;;35.65;35.13;100094.44;10397931;28;20229;-75
2021/06/18 11:07:40;;;;;;;14.20;11.02;;;;;;;35.35;35.94;100078.88;10387890;28;20240;-75
2021/06/18 11:12:46;;;;;;;11.52;10.30;;;;;;;36.17;35.97;100092.63;10395426;28;20255;-75
2021/06/18 11:17:53;;;;;;;13.18;11.07;;;;;;;36.85;35.20;100084.84;10418790;28;20344;-75
2021/06/18 11:23:07;;;;;;;14.75;10.52;;;;;;;36.61;35.20;100088.56;10422333;28;20243;-74
2021/06/18 11:28:47;;;;;;;12.85;10.57;;;;;;;37.19;34.54;100092.84;10430571;28;20254;-74
2021/06/18 11:33:54;;;;;;;12.35;11.02;;;;;;;37.34;34.07;100086.97;10431165;28;20716;-76
2021/06/18 11:38:59;;;;;;;15.77;11.15;;;;;;;35.94;35.46;100088.78;10399440;28;20233;-75
2021/06/18 11:44:04;;;;;;;11.75;10.60;;;;;;;36.25;34.45;100089.13;10391343;28;20233;-75
2021/06/18 11:49:13;;;;;;;11.90;10.63;;;;;;;35.91;35.37;100089.38;10404122;28;20612;-74
2021/06/18 11:54:29;;;;;;;12.65;11.30;;;;;;;36.37;33.57;100071.94;10394542;28;20243;-75
2021/06/18 11:59:33;;;;;;;12.20;10.75;;;;;;;36.87;33.92;100071.38;10411417;28;20239;-74
2021/06/18 12:04:37;;;;;;;12.43;11.32;;;;;;;36.31;34.42;100076.72;10419326;28;20275;-74
2021/06/18 12:09:42;;;;;;;12.85;11.55;;;;;;;37.38;32.98;100064.78;10411955;28;20267;-75
2021/06/18 12:14:54;;;;;;;12.20;11.00;;;;;;;37.68;32.26;100052.09;10411554;28;21352;-75
2021/06/18 12:19:58;;;;;;;13.52;10.90;;;;;;;37.76;33.66;100058.94;10419455;28;20761;-75
2021/06/18 12:25:01;;;;;;;11.48;10.30;;;;;;;37.57;33.21;100059.88;10437763;28;20232;-75
2021/06/18 12:30:07;;;;;;;11.60;10.48;;;;;;;38.00;31.11;100064.28;10433431;28;20608;-76
2021/06/18 12:35:15;;;;;;;11.23;10.13;;;;;;;38.58;31.83;100058.66;10433741;28;20248;-77
2021/06/18 12:40:25;;;;;;;12.10;10.63;;;;;;;38.31;31.57;100068.00;10433877;28;20720;-76
2021/06/18 12:45:30;;;;;;;13.00;11.38;;;;;;;34.89;35.72;100051.47;10398471;28;20240;-75
2021/06/18 12:50:50;;;;;;;13.65;11.40;;;;;;;34.29;38.23;100043.38;10272979;28;21500;-75
2021/06/18 12:55:53;;;;;;;13.60;11.50;;;;;;;33.87;38.91;100051.19;10254925;28;20246;-75
2021/06/18 13:00:59;;;;;;;12.93;11.68;;;;;;;33.33;39.94;100058.38;10265007;28;20244;-76
2021/06/18 13:06:26;;;;;;;13.93;11.73;;;;;;;32.88;41.54;100056.50;10279822;28;20238;-76
2021/06/18 13:11:32;;;;;;;12.60;11.30;;;;;;;32.42;42.70;100057.38;10304353;28;20254;-74
2021/06/18 13:16:36;;;;;;;12.73;11.48;;;;;;;32.21;42.73;100050.16;10304588;28;20248;-75
2021/06/18 13:21:47;;;;;;;13.35;12.05;;;;;;;32.06;43.33;100053.69;10302230;28;20233;-75
2021/06/18 13:26:51;;;;;;;15.15;12.15;;;;;;;31.99;43.74;100042.84;10302389;28;20612;-75
2021/06/18 13:31:55;;;;;;;12.45;11.27;;;;;;;31.79;44.06;100043.66;10300390;28;20228;-75
2021/06/18 13:37:05;;;;;;;13.63;12.23;;;;;;;31.72;44.56;100020.03;10290865;28;20767;-75
2021/06/18 13:42:09;;;;;;;13.40;11.35;;;;;;;31.41;44.46;100027.41;10306916;28;20270;-74
2021/06/18 13:47:13;;;;;;;13.85;11.88;;;;;;;31.26;44.93;100034.56;10281280;28;20250;-73
2021/06/18 13:52:18;;;;;;;13.48;12.13;;;;;;;31.21;44.77;100040.09;10284465;28;20244;-74
2021/06/18 13:57:21;;;;;;;18.00;12.65;;;;;;;31.06;46.70;100049.13;10264157;28;20242;-74
2021/06/18 14:02:24;;;;;;;14.75;12.95;;;;;;;30.60;47.78;100034.94;10226553;28;20640;-73
2021/06/18 14:07:29;;;;;;;15.25;13.43;;;;;;;30.58;46.92;100045.47;10226643;28;20245;-73
2021/06/18 14:12:34;;;;;;;14.55;13.07;;;;;;;30.49;47.42;100027.66;10229601;28;21413;-74
2021/06/18 14:17:38;;;;;;;14.27;12.88;;;;;;;29.88;51.50;100054.78;10227484;28;20313;-74
2021/06/18 14:22:42;;;;;;;14.48;13.05;;;;;;;29.41;51.67;100031.25;10239997;28;20609;-74
2021/06/18 14:27:47;;;;;;;15.38;13.05;;;;;;;29.11;52.07;100017.88;10241163;28;20249;-73
2021/06/18 14:32:50;;;;;;;14.73;13.20;;;;;;;29.30;51.89;100021.97;10223931;28;20636;-74
2021/06/18 14:37:55;;;;;;;17.33;13.70;;;;;;;29.43;50.17;100014.38;10223586;28;20489;-73
2021/06/18 14:42:58;;;;;;;14.63;13.13;;;;;;;29.50;49.87;100010.31;10220573;28;20229;-73
2021/06/18 14:48:01;;;;;;;14.70;13.18;;;;;;;29.70;49.86;99997.84;10228432;28;20238;-74
2021/06/18 14:53:05;;;;;;;15.85;14.18;;;;;;;29.61;50.25;100016.84;10224194;28;20899;-74
2021/06/18 14:58:09;;;;;;;18.88;14.55;;;;;;;29.56;49.31;100016.75;10230640;28;20348;-75
2021/06/18 15:03:12;;;;;;;14.25;12.85;;;;;;;29.53;49.98;99997.91;10230252;28;20831;-73
2021/06/18 15:08:17;;;;;;;14.77;13.27;;;;;;;29.47;50.69;99979.59;10230465;28;20293;-73
2021/06/18 15:13:20;;;;;;;15.55;14.00;;;;;;;29.22;52.12;99980.13;10224690;28;20242;-74
2021/06/18 15:18:23;;;;;;;17.52;14.65;;;;;;;29.42;51.16;99993.34;10203550;28;20244;-74
2021/06/18 15:23:27;;;;;;;16.60;13.95;;;;;;;29.54;50.72;100005.97;10197034;28;20245;-74
2021/06/18 15:28:30;;;;;;;16.88;14.43;;;;;;;29.72;50.19;99995.66;10226831;28;20237;-74
2021/06/18 15:33:33;;;;;;;17.95;15.10;;;;;;;29.98;49.92;100005.88;10195531;28;20236;-73
2021/06/18 15:38:37;;;;;;;20.95;15.00;;;;;;;30.58;49.03;100009.44;10201406;28;21686;-74
2021/06/18 15:43:40;;;;;;;16.85;15.05;;;;;;;30.71;49.31;100008.16;10199768;28;20244;-74
2021/06/18 15:48:43;;;;;;;18.27;15.07;;;;;;;30.78;49.27;100006.00;10190106;28;21580;-74
2021/06/18 15:53:48;;;;;;;18.63;15.00;;;;;;;30.66;49.06;99997.91;10198431;28;20310;-75
2021/06/18 15:58:51;;;;;;;21.85;17.55;;;;;;;30.59;49.70;100000.03;10163048;28;20230;-75
2021/06/18 16:03:53;;;;;;;21.20;16.63;;;;;;;30.73;49.79;100007.91;10170097;28;20226;-74
2021/06/18 16:08:58;;;;;;;18.15;15.68;;;;;;;30.27;59.01;100000.06;10159443;28;20246;-74
2021/06/18 16:14:01;;;;;;;18.67;14.98;;;;;;;31.69;53.75;100001.16;10179631;28;20745;-74
2021/06/18 16:19:04;;;;;;;16.70;14.18;;;;;;;32.45;44.85;99987.34;10180585;28;20715;-77
2021/06/18 16:24:09;;;;;;;13.13;10.43;;;;;;;32.75;39.86;99996.78;10159733;28;20239;-75
2021/06/18 16:29:12;;;;;;;12.05;8.68;;;;;;;33.43;35.69;99976.75;10218384;28;20230;-77
2021/06/18 16:34:15;;;;;;;11.35;7.32;;;;;;;34.64;33.40;99978.09;10225501;28;20746;-77
2021/06/18 16:39:19;;;;;;;8.43;6.45;;;;;;;35.69;30.47;99965.09;10197976;28;20253;-76
2021/06/18 16:44:22;;;;;;;9.80;7.23;;;;;;;36.68;29.00;99960.34;10190112;28;20356;-77
2021/06/18 16:49:28;;;;;;;11.05;6.65;;;;;;;38.05;27.35;99952.84;10169075;28;21418;-77
2021/06/18 16:54:33;;;;;;;9.93;6.72;;;;;;;37.86;26.95;99955.84;10192332;28;20243;-76
2021/06/18 16:59:36;;;;;;;8.20;6.65;;;;;;;37.72;26.84;99948.66;10203021;28;20274;-77
2021/06/18 17:04:39;;;;;;;8.70;6.20;;;;;;;35.21;30.33;99964.34;10193873;28;20353;-77
2021/06/18 17:09:48;;;;;;;11.98;6.25;;;;;;;34.10;33.19;99957.69;10202995;28;20261;-76
2021/06/18 17:14:54;;;;;;;10.45;7.03;;;;;;;32.66;35.30;99945.63;10186558;28;21506;-76
2021/06/18 17:19:57;;;;;;;8.25;6.38;;;;;;;31.14;37.52;99928.53;10207305;28;20703;-76
2021/06/18 17:25:01;;;;;;;11.98;7.20;;;;;;;30.59;38.74;99941.84;10178151;28;20234;-77
2021/06/18 17:30:07;;;;;;;12.63;7.40;;;;;;;29.85;41.63;99939.88;10151198;28;20639;-76
2021/06/18 17:35:11;;;;;;;10.85;6.70;;;;;;;29.77;42.09;99938.41;10139233;28;20600;-77
2021/06/18 17:40:16;;;;;;;9.85;6.95;;;;;;;30.34;40.71;99931.44;10152093;28;20240;-77
2021/06/18 17:45:20;;;;;;;13.95;7.72;;;;;;;30.25;42.59;99947.72;10160301;28;20233;-77
2021/06/18 17:50:24;;;;;;;9.85;6.85;;;;;;;30.09;41.46;99948.66;10119144;28;21448;-76
2021/06/18 17:55:28;;;;;;;10.48;7.28;;;;;;;30.11;41.05;99946.44;10200117;28;20618;-77
2021/06/18 18:00:31;;;;;;;8.60;7.03;;;;;;;29.77;40.90;99938.41;10205466;28;20257;-78
2021/06/18 18:05:35;;;;;;;12.65;8.00;;;;;;;29.53;40.94;99932.31;10187885;28;20247;-76
2021/06/18 18:10:40;;;;;;;10.35;7.43;;;;;;;29.40;42.28;99932.75;10189878;28;20261;-77
2021/06/18 18:15:43;;;;;;;10.10;8.23;;;;;;;29.29;42.97;99942.03;10190964;28;20243;-77
2021/06/18 18:20:47;;;;;;;9.43;7.88;;;;;;;29.18;43.39;99938.31;10206290;28;20225;-77
2021/06/18 18:25:54;;;;;;;10.98;8.32;;;;;;;29.15;43.44;99933.28;10211483;28;20242;-76
2021/06/18 18:30:57;;;;;;;9.93;8.43;;;;;;;29.11;43.71;99930.22;10192827;28;20246;-75
2021/06/18 18:36:00;;;;;;;18.40;12.40;;;;;;;29.05;44.43;99922.94;10182308;28;20257;-76
2021/06/18 18:41:05;;;;;;;15.82;10.23;;;;;;;28.85;44.95;99928.19;10197005;28;20317;-76
2021/06/18 18:46:08;;;;;;;13.00;9.35;;;;;;;28.57;45.73;99916.22;10187618;28;21412;-77
2021/06/18 18:51:11;;;;;;;15.03;9.97;;;;;;;28.36;46.58;99919.75;10185915;28;20262;-77
2021/06/18 18:56:16;;;;;;;14.00;9.98;;;;;;;28.21;47.14;99923.13;10143601;28;20246;-77
2021/06/18 19:01:19;;;;;;;14.15;9.57;;;;;;;28.09;47.85;99934.25;10313007;28;20231;-77
2021/06/18 19:06:23;;;;;;;16.98;10.52;;;;;;;27.75;49.13;99927.84;10308039;28;20722;-77
2021/06/18 19:11:27;;;;;;;13.38;10.50;;;;;;;27.58;49.83;99933.34;10308198;28;20243;-75
2021/06/18 19:16:30;;;;;;;14.95;11.02;;;;;;;27.43;50.64;99935.81;10298518;28;20238;-75
2021/06/18 19:21:33;;;;;;;17.48;12.07;;;;;;;27.12;52.24;99935.19;10312469;28;20645;-76
2021/06/18 19:26:38;;;;;;;17.88;11.55;;;;;;;26.88;53.27;99948.22;10308685;28;20457;-75
2021/06/18 19:31:43;;;;;;;18.40;13.10;;;;;;;26.63;54.44;99938.28;10307865;28;20246;-74
2021/06/18 19:36:46;;;;;;;16.67;12.30;;;;;;;26.52;55.11;99936.34;10295481;28;20254;-75
2021/06/18 19:41:51;;;;;;;18.98;13.13;;;;;;;26.31;55.74;99937.81;10318520;28;20243;-76
2021/06/18 19:46:54;;;;;;;15.35;13.27;;;;;;;26.17;56.43;99942.69;10309444;28;20237;-75
2021/06/18 19:51:58;;;;;;;16.33;13.13;;;;;;;26.05;56.61;99939.91;10310575;28;20686;-76
2021/06/18 19:57:04;;;;;;;19.58;14.18;;;;;;;25.95;56.96;99942.41;10308780;28;20254;-75
2021/06/18 20:02:10;;;;;;;17.73;13.10;;;;;;;25.76;57.68;99941.66;10311329;28;20250;-75
2021/06/18 20:07:13;;;;;;;16.88;13.70;;;;;;;25.54;58.15;99952.31;10316672;28;20234;-73
2021/06/18 20:12:17;;;;;;;16.85;13.70;;;;;;;25.41;58.45;99950.56;10316920;28;20227;-75
2021/06/18 20:17:21;;;;;;;15.73;13.35;;;;;;;25.25;59.08;99953.97;10317931;28;20330;-75
2021/06/18 20:22:24;;;;;;;15.95;12.93;;;;;;;25.24;59.08;99959.72;10315059;28;20242;-74
2021/06/18 20:27:29;;;;;;;18.05;13.85;;;;;;;25.17;58.57;99959.78;10312918;28;20239;-75
2021/06/18 20:32:32;;;;;;;14.88;13.10;;;;;;;25.06;58.43;99958.66;10298138;28;20242;-76
2021/06/18 20:37:35;;;;;;;16.77;13.27;;;;;;;25.00;58.02;99953.22;10315603;28;20285;-75
2021/06/18 20:42:40;;;;;;;14.32;12.82;;;;;;;24.93;57.81;99956.03;10352688;28;20241;-75
2021/06/18 20:47:43;;;;;;;18.98;12.82;;;;;;;24.80;57.56;99959.78;10328794;28;20235;-75
2021/06/18 20:52:47;;;;;;;17.38;12.15;;;;;;;24.75;57.69;99963.19;10313428;28;20241;-75
2021/06/18 20:57:52;;;;;;;18.52;13.20;;;;;;;24.75;57.57;99952.22;10324332;28;20242;-76
2021/06/18 21:02:58;;;;;;;14.35;12.45;;;;;;;24.72;57.75;99962.81;10322061;28;20235;-77
2021/06/18 21:08:01;;;;;;;13.90;11.52;;;;;;;24.72;57.75;99962.81;10328161;28;20238;-76
2021/06/18 21:13:06;;;;;;;14.52;12.07;;;;;;;24.56;57.91;99956.03;10313185;28;20231;-76
2021/06/18 21:18:10;;;;;;;16.42;13.18;;;;;;;24.59;57.92;99965.72;10313096;28;20242;-77
2021/06/18 21:23:13;;;;;;;13.70;12.35;;;;;;;24.61;57.98;99969.06;10310946;28;20909;-77
2021/06/18 21:28:17;;;;;;;18.67;14.30;;;;;;;24.56;58.33;99964.25;10314976;28;20801;-77
2021/06/18 21:33:20;;;;;;;18.83;13.27;;;;;;;24.47;58.33;99982.09;10315290;28;20246;-77
2021/06/18 21:38:23;;;;;;;16.33;13.82;;;;;;;24.37;59.06;99985.31;10316487;28;20231;-76
2021/06/18 21:43:27;;;;;;;17.70;14.07;;;;;;;24.34;59.42;99991.25;10313585;28;21435;-76
2021/06/18 21:48:30;;;;;;;18.88;14.50;;;;;;;24.27;59.67;99995.94;10310958;28;20869;-75
2021/06/18 21:53:33;;;;;;;16.65;13.88;;;;;;;24.18;59.85;100008.28;10311578;28;20238;-76
2021/06/18 21:58:37;;;;;;;17.42;14.55;;;;;;;24.11;60.06;100005.59;10312770;28;20235;-76
2021/06/18 22:03:40;;;;;;;17.00;13.93;;;;;;;23.94;60.61;100008.00;10310651;28;20247;-75
2021/06/18 22:08:44;;;;;;;17.23;13.93;;;;;;;23.89;60.60;100013.34;10311321;28;20619;-75
2021/06/18 22:13:48;;;;;;;18.38;14.57;;;;;;;23.80;61.03;100026.44;10310532;28;20277;-75
2021/06/18 22:18:51;;;;;;;18.63;14.80;;;;;;;23.69;61.54;100023.53;10309831;28;20234;-76
2021/06/18 22:23:55;;;;;;;17.98;15.00;;;;;;;23.70;61.30;100033.47;10303275;28;20242;-76
2021/06/18 22:28:59;;;;;;;17.85;13.00;;;;;;;23.71;61.31;100025.00;10308298;28;20290;-76
2021/06/18 22:34:02;;;;;;;16.80;13.48;;;;;;;23.67;61.21;100042.97;10310183;28;20799;-74
2021/06/18 22:39:06;;;;;;;15.65;14.00;;;;;;;23.78;60.70;100030.47;10310601;28;20231;-75
2021/06/18 22:44:10;;;;;;;15.23;13.65;;;;;;;23.74;60.89;100024.56;10334365;28;20242;-75
2021/06/18 22:49:13;;;;;;;16.83;14.30;;;;;;;23.75;60.79;100033.63;10349524;28;20241;-75
2021/06/18 22:54:17;;;;;;;16.90;13.85;;;;;;;23.74;61.00;100026.47;10345443;28;20614;-74
2021/06/18 22:59:22;;;;;;;16.40;13.32;;;;;;;23.77;60.88;100020.56;10328566;28;20237;-75
2021/06/18 23:04:25;;;;;;;16.70;14.00;;;;;;;23.64;61.35;100024.19;10345899;28;20241;-75